Time;durP1;ratioP1;P1;durP2;ratioP2;P2;SDS_P1;SDS_P2;PMS_P1;PMS_P2;Temp;Humidity;BMP_temperature;BMP_pressure;BME280_temperature;BME280_humidity;BME280_pressure;Samples;Min_cycle;Max_cycle;Signal;HPM_P1;HPM_P2
2023/03/02 00:01:45;;;;;;;12.02;10.80;;;2.30;95.80;;;;;;4978023;28;20042;-64
2023/03/02 00:04:50;;;;;;;11.52;10.35;;;2.30;98.40;;;;;;4976466;28;20328;-62
2023/03/02 00:07:36;;;;;;;14.23;12.10;;;2.30;99.90;;;;;;4976246;28;20299;-63
2023/03/02 00:10:03;;;;;;;15.40;12.98;;;2.30;99.90;;;;;;4978041;28;20323;-62
2023/03/02 00:12:31;;;;;;;14.35;11.20;;;2.30;99.90;;;;;;4976578;28;20382;-62
2023/03/02 00:14:57;;;;;;;14.05;11.70;;;2.40;99.90;;;;;;4992562;28;20443;-62
2023/03/02 00:17:26;;;;;;;10.02;8.98;;;2.30;97.70;;;;;;4991295;28;20042;-62
2023/03/02 00:20:10;;;;;;;13.05;11.15;;;2.40;99.90;;;;;;4993655;28;20063;-63
2023/03/02 00:22:44;;;;;;;14.43;12.57;;;2.40;99.90;;;;;;4991781;28;20116;-64
2023/03/02 00:25:11;;;;;;;14.40;12.35;;;2.40;99.90;;;;;;4990575;28;20046;-65
2023/03/02 00:27:37;;;;;;;15.05;12.98;;;2.40;99.90;;;;;;5005783;28;20053;-65
2023/03/02 00:30:03;;;;;;;15.18;13.52;;;2.30;99.90;;;;;;4992148;28;20349;-65
2023/03/02 00:32:29;;;;;;;16.55;14.77;;;2.40;99.90;;;;;;5007543;28;20042;-64
2023/03/02 00:34:55;;;;;;;16.90;13.40;;;2.20;99.90;;;;;;5008208;28;20236;-64
2023/03/02 00:37:21;;;;;;;20.67;16.15;;;2.30;99.90;;;;;;4991369;28;20133;-62
2023/03/02 00:39:46;;;;;;;18.52;14.90;;;2.20;99.90;;;;;;4979252;28;20046;-62
2023/03/02 00:42:12;;;;;;;20.73;15.68;;;2.20;99.90;;;;;;4974585;28;20260;-64
2023/03/02 00:44:38;;;;;;;17.00;13.57;;;2.20;99.90;;;;;;4975329;28;20038;-63
2023/03/02 00:47:04;;;;;;;14.40;12.82;;;2.20;99.90;;;;;;5009744;28;20034;-64
2023/03/02 00:49:29;;;;;;;18.77;15.48;;;2.20;99.90;;;;;;4975551;28;20368;-64
2023/03/02 00:51:55;;;;;;;20.27;16.77;;;2.20;99.90;;;;;;4980841;28;20103;-64
2023/03/02 00:54:21;;;;;;;19.90;15.95;;;2.00;99.90;;;;;;4973222;28;20616;-64
2023/03/02 00:56:46;;;;;;;21.73;16.90;;;2.10;99.90;;;;;;4956986;28;20056;-64
2023/03/02 00:59:27;;;;;;;23.98;19.52;;;2.00;99.90;;;;;;4991226;28;20536;-62
2023/03/02 01:02:02;;;;;;;22.42;16.83;;;2.00;99.90;;;;;;4981418;28;20045;-61
2023/03/02 01:04:33;;;;;;;25.73;17.73;;;2.00;99.90;;;;;;4976033;28;20313;-63
2023/03/02 01:07:02;;;;;;;29.42;21.23;;;2.00;99.90;;;;;;4993208;28;20041;-62
2023/03/02 01:09:28;;;;;;;19.92;15.48;;;2.10;99.90;;;;;;4977313;28;20728;-63
2023/03/02 01:11:54;;;;;;;22.83;17.85;;;2.10;99.90;;;;;;4978002;28;20041;-62
2023/03/02 01:14:20;;;;;;;26.73;19.88;;;2.10;99.90;;;;;;4975367;28;20042;-64
2023/03/02 01:16:46;;;;;;;25.70;19.55;;;2.10;99.90;;;;;;4976513;28;20145;-64
2023/03/02 01:19:13;;;;;;;28.77;21.50;;;2.10;99.90;;;;;;4974955;28;20712;-64
2023/03/02 01:21:40;;;;;;;30.98;22.00;;;2.10;99.90;;;;;;4975251;28;20116;-62
2023/03/02 01:24:06;;;;;;;32.25;23.80;;;2.10;99.90;;;;;;4976415;28;20411;-63
2023/03/02 01:26:32;;;;;;;28.33;21.00;;;2.00;99.90;;;;;;4977512;28;20042;-63
2023/03/02 01:28:58;;;;;;;30.75;24.58;;;2.10;99.90;;;;;;4974563;28;20034;-62
2023/03/02 01:31:25;;;;;;;37.92;27.95;;;2.10;99.90;;;;;;5005413;28;20408;-63
2023/03/02 01:33:51;;;;;;;37.80;27.95;;;2.00;99.90;;;;;;5006629;28;20496;-64
2023/03/02 01:36:17;;;;;;;43.15;30.60;;;2.00;99.90;;;;;;4977126;28;20077;-64
2023/03/02 01:38:44;;;;;;;36.40;26.23;;;1.90;99.90;;;;;;4973984;28;20042;-64
2023/03/02 01:41:10;;;;;;;42.10;31.13;;;2.00;99.90;;;;;;5007207;28;20440;-62
2023/03/02 01:43:36;;;;;;;41.70;31.13;;;2.00;99.90;;;;;;4979996;28;20041;-62
2023/03/02 01:46:08;;;;;;;42.53;31.38;;;2.00;99.90;;;;;;4987085;28;20377;-64
2023/03/02 01:48:44;;;;;;;42.55;30.02;;;2.00;99.90;;;;;;4972245;28;20085;-64
2023/03/02 01:51:14;;;;;;;37.83;26.35;;;2.00;99.90;;;;;;4989701;28;20145;-64
2023/03/02 01:53:45;;;;;;;47.65;32.42;;;2.00;99.90;;;;;;4990421;28;20738;-62
2023/03/02 01:56:17;;;;;;;47.42;32.03;;;2.00;99.90;;;;;;4975036;28;20589;-64
2023/03/02 01:58:46;;;;;;;53.58;34.97;;;1.80;99.90;;;;;;4989308;28;20069;-64
2023/03/02 02:01:14;;;;;;;47.03;31.10;;;2.00;99.90;;;;;;4983581;28;20080;-63
2023/03/02 02:03:46;;;;;;;54.70;36.45;;;2.00;99.90;;;;;;4998095;28;20049;-63
2023/03/02 02:06:16;;;;;;;49.20;32.97;;;1.90;99.90;;;;;;5010040;28;20053;-64
2023/03/02 02:08:44;;;;;;;60.03;38.13;;;1.90;99.90;;;;;;4993776;28;20535;-64
2023/03/02 02:11:11;;;;;;;56.70;33.78;;;1.90;99.90;;;;;;4977220;28;20128;-64
2023/03/02 02:13:36;;;;;;;55.75;35.13;;;1.80;99.90;;;;;;4984077;28;20042;-63
2023/03/02 02:16:03;;;;;;;62.63;36.33;;;1.80;99.90;;;;;;4977693;28;20069;-64
2023/03/02 02:18:29;;;;;;;64.97;36.97;;;1.80;99.90;;;;;;4978487;28;20128;-64
2023/03/02 02:20:55;;;;;;;66.60;35.33;;;1.80;99.90;;;;;;4979283;28;20062;-64
2023/03/02 02:23:48;;;;;;;67.70;34.47;;;1.70;99.90;;;;;;5009828;28;20042;-63
2023/03/02 02:26:25;;;;;;;82.93;39.90;;;1.80;99.90;;;;;;4977729;28;20046;-64
2023/03/02 02:28:56;;;;;;;91.78;39.03;;;1.70;99.90;;;;;;4960315;28;20097;-64
2023/03/02 02:31:39;;;;;;;93.55;43.63;;;1.70;99.90;;;;;;5008613;28;20193;-64
2023/03/02 02:34:33;;;;;;;98.45;40.25;;;1.70;99.90;;;;;;4980021;28;20489;-64
2023/03/02 02:37:12;;;;;;;100.28;39.40;;;1.70;99.90;;;;;;4976523;28;20055;-64
2023/03/02 02:39:43;;;;;;;105.90;41.40;;;1.60;99.90;;;;;;4960324;28;20162;-63
2023/03/02 02:42:24;;;;;;;114.95;44.53;;;1.50;99.90;;;;;;4976112;28;20042;-64
2023/03/02 02:44:53;;;;;;;111.10;39.67;;;1.50;99.90;;;;;;4980639;28;20128;-64
2023/03/02 02:47:20;;;;;;;135.20;47.03;;;1.50;99.90;;;;;;5010106;28;20049;-64
2023/03/02 02:49:49;;;;;;;129.00;43.17;;;1.50;99.90;;;;;;4992442;28;20346;-64
2023/03/02 02:52:17;;;;;;;132.07;42.55;;;1.40;99.90;;;;;;4976970;28;20659;-63
2023/03/02 02:54:48;;;;;;;140.02;43.60;;;1.50;99.90;;;;;;4979141;28;20049;-64
2023/03/02 02:57:16;;;;;;;105.13;37.03;;;1.50;99.90;;;;;;4975556;28;20491;-64
2023/03/02 03:00:13;;;;;;;112.13;40.97;;;1.40;99.90;;;;;;4978846;28;20038;-64
2023/03/02 03:02:44;;;;;;;118.88;40.53;;;1.40;99.90;;;;;;4975756;28;20053;-65
2023/03/02 03:05:16;;;;;;;124.30;41.42;;;1.40;99.90;;;;;;4975882;28;20080;-63
2023/03/02 03:07:42;;;;;;;154.32;40.08;;;1.40;99.90;;;;;;5009106;28;20551;-63
2023/03/02 03:10:11;;;;;;;157.07;46.58;;;1.40;99.90;;;;;;5009427;28;20121;-63
2023/03/02 03:12:38;;;;;;;155.00;42.97;;;1.40;99.90;;;;;;5008670;28;20234;-64
2023/03/02 03:15:06;;;;;;;133.45;42.80;;;1.40;99.90;;;;;;5008108;28;20523;-65
2023/03/02 03:17:32;;;;;;;144.48;44.40;;;1.50;99.90;;;;;;5008209;28;20138;-64
2023/03/02 03:20:04;;;;;;;144.43;40.90;;;1.40;99.90;;;;;;5010347;28;20050;-64
2023/03/02 03:22:32;;;;;;;138.95;40.95;;;1.50;99.90;;;;;;4992189;28;20050;-64
2023/03/02 03:24:58;;;;;;;120.10;38.60;;;1.40;99.90;;;;;;5011495;28;20412;-63
2023/03/02 03:27:24;;;;;;;167.07;41.78;;;1.40;99.90;;;;;;4959415;28;20151;-62
2023/03/02 03:29:50;;;;;;;144.52;42.10;;;1.40;99.90;;;;;;5010787;28;20072;-62
2023/03/02 03:32:16;;;;;;;174.57;46.75;;;1.30;99.90;;;;;;4992392;28;20042;-63
2023/03/02 03:34:42;;;;;;;150.27;46.83;;;1.40;99.90;;;;;;4979466;28;20038;-63
2023/03/02 03:37:09;;;;;;;157.07;45.60;;;1.20;99.90;;;;;;4977185;28;20291;-63
2023/03/02 03:39:36;;;;;;;125.20;41.85;;;1.30;99.90;;;;;;4994382;28;20038;-63
2023/03/02 03:42:02;;;;;;;152.32;42.75;;;1.20;99.90;;;;;;4979362;28;20586;-63
2023/03/02 03:44:28;;;;;;;109.95;36.28;;;1.30;99.90;;;;;;4979093;28;20034;-63
2023/03/02 03:46:55;;;;;;;181.10;46.13;;;1.20;99.90;;;;;;4992829;28;20038;-64
2023/03/02 03:49:20;;;;;;;109.03;39.05;;;1.20;99.90;;;;;;5008317;28;20069;-62
2023/03/02 03:51:46;;;;;;;106.32;39.83;;;1.20;99.90;;;;;;4991872;28;20503;-62
2023/03/02 03:54:12;;;;;;;134.00;41.00;;;1.10;99.90;;;;;;4959315;28;20101;-64
2023/03/02 03:56:42;;;;;;;253.40;42.72;;;1.10;99.90;;;;;;4975495;28;20403;-64
2023/03/02 03:59:09;;;;;;;172.63;39.95;;;1.10;99.90;;;;;;4977040;28;20041;-62
2023/03/02 04:01:44;;;;;;;222.10;40.63;;;1.10;99.90;;;;;;4974620;28;20127;-62
2023/03/02 04:04:13;;;;;;;145.60;43.85;;;1.10;99.90;;;;;;4976431;28;20046;-62
2023/03/02 04:06:39;;;;;;;91.68;34.53;;;1.10;99.90;;;;;;4975614;28;20038;-64
2023/03/02 04:09:05;;;;;;;173.75;43.40;;;1.10;99.90;;;;;;4991558;28;20081;-64
2023/03/02 04:11:34;;;;;;;143.68;43.00;;;1.10;99.90;;;;;;4982783;28;20056;-63
2023/03/02 04:14:00;;;;;;;151.27;40.45;;;1.10;99.90;;;;;;5007807;28;20096;-64
2023/03/02 04:16:27;;;;;;;204.25;40.63;;;1.00;99.90;;;;;;5009435;28;20077;-62
2023/03/02 04:18:53;;;;;;;144.93;38.65;;;1.10;99.90;;;;;;4976752;28;20411;-63
2023/03/02 04:21:19;;;;;;;143.65;36.17;;;1.10;99.90;;;;;;4975629;28;20065;-63
2023/03/02 04:23:45;;;;;;;224.63;39.67;;;1.00;99.90;;;;;;4990580;28;20054;-64
2023/03/02 04:26:10;;;;;;;341.25;44.53;;;1.10;99.90;;;;;;4976642;28;20233;-63
2023/03/02 04:28:36;;;;;;;397.55;52.08;;;1.00;99.90;;;;;;4960509;28;20042;-63
2023/03/02 04:31:02;;;;;;;344.42;43.47;;;1.10;99.90;;;;;;4976912;28;20550;-65
2023/03/02 04:33:27;;;;;;;243.63;42.47;;;1.00;99.90;;;;;;4973850;28;20041;-64
2023/03/02 04:35:53;;;;;;;328.05;44.80;;;1.00;99.90;;;;;;4973502;28;20161;-64
2023/03/02 04:38:20;;;;;;;467.52;52.90;;;1.10;99.90;;;;;;4990447;28;20487;-65
2023/03/02 04:40:46;;;;;;;511.92;50.58;;;1.10;99.90;;;;;;4978332;28;20046;-63
2023/03/02 04:43:12;;;;;;;295.77;50.33;;;1.00;99.90;;;;;;4973762;28;20411;-63
2023/03/02 04:45:38;;;;;;;303.58;45.97;;;1.00;99.90;;;;;;4975532;28;20564;-64
2023/03/02 04:48:04;;;;;;;253.48;44.85;;;1.00;99.90;;;;;;4974824;28;20041;-62
2023/03/02 04:50:29;;;;;;;220.10;47.53;;;1.10;99.90;;;;;;4975361;28;20396;-63
2023/03/02 04:52:55;;;;;;;249.82;35.58;;;1.10;99.90;;;;;;4979579;28;20530;-64
2023/03/02 04:55:25;;;;;;;249.38;46.45;;;1.00;99.90;;;;;;4991430;28;20042;-62
2023/03/02 04:57:51;;;;;;;247.70;34.75;;;1.10;99.90;;;;;;4975922;28;20061;-64
2023/03/02 05:00:19;;;;;;;175.00;30.10;;;1.20;99.90;;;;;;5006123;28;20042;-65
2023/03/02 05:02:45;;;;;;;230.60;38.50;;;1.20;99.90;;;;;;4976425;28;20046;-64
2023/03/02 05:05:16;;;;;;;136.25;35.92;;;1.20;99.90;;;;;;4998326;28;20347;-64
2023/03/02 05:07:43;;;;;;;240.88;42.40;;;1.10;99.90;;;;;;5008408;28;20518;-64
2023/03/02 05:10:14;;;;;;;190.70;38.63;;;0.90;99.90;;;;;;4974861;28;20074;-64
2023/03/02 05:13:01;;;;;;;193.73;28.88;;;1.00;99.90;;;;;;5006732;28;20452;-65
2023/03/02 05:15:35;;;;;;;333.75;49.35;;;1.10;99.90;;;;;;4989841;28;20501;-66
2023/03/02 05:18:04;;;;;;;308.50;49.97;;;1.10;99.90;;;;;;5006701;28;20134;-64
2023/03/02 05:20:30;;;;;;;388.27;55.08;;;1.10;99.90;;;;;;5006775;28;20576;-64
2023/03/02 05:23:02;;;;;;;368.55;47.92;;;1.00;99.90;;;;;;4989935;28;20524;-63
2023/03/02 05:25:30;;;;;;;268.90;50.97;;;1.10;99.90;;;;;;4975782;28;20329;-64
2023/03/02 05:27:56;;;;;;;259.00;49.67;;;1.00;99.90;;;;;;4973790;28;20130;-63
2023/03/02 05:30:22;;;;;;;156.43;40.53;;;1.10;99.90;;;;;;5008063;28;20042;-63
2023/03/02 05:32:49;;;;;;;237.18;47.22;;;1.10;99.90;;;;;;5005642;28;20431;-63
2023/03/02 05:35:16;;;;;;;211.88;43.20;;;1.00;99.90;;;;;;5006597;28;20050;-63
2023/03/02 05:37:43;;;;;;;282.13;39.35;;;0.90;99.90;;;;;;5004840;28;20185;-64
2023/03/02 05:40:11;;;;;;;260.10;43.75;;;0.90;99.90;;;;;;5007486;28;20046;-64
2023/03/02 05:42:37;;;;;;;224.32;33.33;;;1.10;99.90;;;;;;5006615;28;20293;-63
2023/03/02 05:45:05;;;;;;;383.25;50.15;;;1.00;99.90;;;;;;4989829;28;20050;-64
2023/03/02 05:47:30;;;;;;;254.80;44.70;;;1.00;99.90;;;;;;4974694;28;20057;-62
2023/03/02 05:49:58;;;;;;;257.58;38.25;;;1.00;99.90;;;;;;4989809;28;20072;-63
2023/03/02 05:52:24;;;;;;;221.63;35.92;;;0.90;99.90;;;;;;4989982;28;20489;-63
2023/03/02 05:54:49;;;;;;;251.23;43.85;;;0.90;99.90;;;;;;5006956;28;20243;-63
2023/03/02 05:57:15;;;;;;;416.45;54.60;;;0.90;99.90;;;;;;4972829;28;20226;-64
2023/03/02 05:59:41;;;;;;;333.13;50.15;;;0.80;99.90;;;;;;4973019;28;20129;-64
2023/03/02 06:02:07;;;;;;;243.55;42.40;;;0.80;99.90;;;;;;4990597;28;20493;-64
2023/03/02 06:04:33;;;;;;;305.60;48.10;;;0.80;99.90;;;;;;5006666;28;20046;-65
2023/03/02 06:06:59;;;;;;;328.27;51.75;;;0.90;99.90;;;;;;5004397;28;20081;-63
2023/03/02 06:09:24;;;;;;;338.33;51.78;;;0.80;99.90;;;;;;4956316;28;20043;-64
2023/03/02 06:11:50;;;;;;;241.75;54.03;;;1.00;99.90;;;;;;4956059;28;20678;-64
2023/03/02 06:14:16;;;;;;;358.55;61.33;;;1.00;99.90;;;;;;4971878;28;20102;-65
2023/03/02 06:16:42;;;;;;;390.95;61.95;;;0.90;1.00;;;;;;5004641;28;20038;-65
2023/03/02 06:19:07;;;;;;;238.80;40.10;;;0.90;1.00;;;;;;4974361;28;20041;-64
2023/03/02 06:21:33;;;;;;;332.45;56.92;;;1.00;1.00;;;;;;4988225;28;20054;-63
2023/03/02 06:23:59;;;;;;;328.08;46.40;;;1.00;1.00;;;;;;4990874;28;20428;-63
2023/03/02 06:26:25;;;;;;;419.27;59.78;;;0.90;1.00;;;;;;5005379;28;20050;-63
2023/03/02 06:28:50;;;;;;;333.58;44.63;;;0.90;1.00;;;;;;4973448;28;20121;-64
2023/03/02 06:31:16;;;;;;;354.58;50.50;;;0.80;1.00;;;;;;4981565;28;20057;-62
2023/03/02 06:33:42;;;;;;;276.98;34.17;;;0.90;1.00;;;;;;4993263;28;20125;-63
2023/03/02 06:36:08;;;;;;;238.70;40.10;;;0.90;1.00;;;;;;4995808;28;20042;-62
2023/03/02 06:38:34;;;;;;;202.32;23.58;;;0.80;1.00;;;;;;5007394;28;20121;-64
2023/03/02 06:40:59;;;;;;;280.60;36.13;;;0.80;1.00;;;;;;5009416;28;20579;-63
2023/03/02 06:43:25;;;;;;;287.10;37.92;;;0.90;1.00;;;;;;4980581;28;20580;-64
2023/03/02 06:45:51;;;;;;;185.32;30.83;;;0.80;1.00;;;;;;4992975;28;20140;-64
2023/03/02 06:48:16;;;;;;;259.65;32.75;;;0.70;1.00;;;;;;4983920;28;20197;-66
2023/03/02 06:50:42;;;;;;;272.90;38.35;;;0.60;1.00;;;;;;4963662;28;20533;-63
2023/03/02 06:53:08;;;;;;;175.88;32.65;;;0.60;1.00;;;;;;4993719;28;20938;-63
2023/03/02 06:55:34;;;;;;;88.30;18.52;;;0.60;1.00;;;;;;4973580;28;20046;-64
2023/03/02 06:57:59;;;;;;;194.23;28.23;;;0.60;1.00;;;;;;4992878;28;20061;-64
2023/03/02 07:00:26;;;;;;;297.25;38.22;;;0.50;99.90;;;;;;4975985;28;20046;-64
2023/03/02 07:02:54;;;;;;;205.02;30.20;;;0.50;99.90;;;;;;4988982;28;20135;-63
2023/03/02 07:05:21;;;;;;;212.02;35.92;;;0.60;1.00;;;;;;5010371;28;20046;-63
2023/03/02 07:07:46;;;;;;;182.57;35.63;;;0.60;1.00;;;;;;4976795;28;20046;-64
2023/03/02 07:10:12;;;;;;;301.05;38.63;;;0.50;1.00;;;;;;4991203;28;20247;-64
2023/03/02 07:12:39;;;;;;;174.43;29.10;;;0.50;1.00;;;;;;5007428;28;20046;-63
2023/03/02 07:15:09;;;;;;;110.88;25.27;;;0.60;1.00;;;;;;4977032;28;20485;-63
2023/03/02 07:17:36;;;;;;;111.97;26.25;;;0.40;1.00;;;;;;5011902;28;20440;-64
2023/03/02 07:20:04;;;;;;;151.27;30.98;;;0.60;1.00;;;;;;4978052;28;20046;-64
2023/03/02 07:22:30;;;;;;;145.13;33.47;;;0.40;1.00;;;;;;4981166;28;20342;-64
2023/03/02 07:24:56;;;;;;;157.55;29.52;;;0.50;1.00;;;;;;4975984;28;20145;-64
2023/03/02 07:27:21;;;;;;;119.68;27.70;;;0.60;1.00;;;;;;4992922;28;20517;-64
2023/03/02 07:29:47;;;;;;;135.95;33.13;;;0.70;1.00;;;;;;4976842;28;20506;-64
2023/03/02 07:32:13;;;;;;;128.60;31.30;;;0.60;1.00;;;;;;5011000;28;20456;-63
2023/03/02 07:34:39;;;;;;;135.98;31.10;;;0.80;1.00;;;;;;4984600;28;20057;-63
2023/03/02 07:37:05;;;;;;;122.85;32.83;;;0.80;1.00;;;;;;4977341;28;20733;-62
2023/03/02 07:39:31;;;;;;;154.13;36.08;;;0.70;1.00;;;;;;4980962;28;20039;-65
2023/03/02 07:41:58;;;;;;;181.80;34.15;;;0.80;1.00;;;;;;4978964;28;20502;-62
2023/03/02 07:44:24;;;;;;;135.93;34.78;;;0.80;1.00;;;;;;4980360;28;20478;-63
2023/03/02 07:46:50;;;;;;;115.32;32.58;;;0.70;1.00;;;;;;4980248;28;20066;-62
2023/03/02 07:49:16;;;;;;;205.60;30.90;;;0.80;1.00;;;;;;4995332;28;20399;-62
2023/03/02 07:51:42;;;;;;;271.73;36.08;;;0.80;1.00;;;;;;5012509;28;20045;-63
2023/03/02 07:54:07;;;;;;;257.98;36.65;;;0.90;1.00;;;;;;4981887;28;20049;-64
2023/03/02 07:56:34;;;;;;;172.40;35.30;;;0.80;1.00;;;;;;4999453;28;20052;-62
2023/03/02 07:59:00;;;;;;;144.90;32.78;;;0.80;1.00;;;;;;5012098;28;20112;-64
2023/03/02 08:01:26;;;;;;;138.55;30.13;;;0.90;1.00;;;;;;4977691;28;20041;-63
2023/03/02 08:03:52;;;;;;;128.00;28.55;;;0.90;1.00;;;;;;5007227;28;20318;-63
2023/03/02 08:06:17;;;;;;;181.68;29.75;;;0.90;1.00;;;;;;4993427;28;20048;-67
2023/03/02 08:08:44;;;;;;;264.23;37.70;;;1.20;1.00;;;;;;4975742;28;20048;-64
2023/03/02 08:11:16;;;;;;;177.35;32.70;;;1.20;1.00;;;;;;5008292;28;20050;-63
2023/03/02 08:13:42;;;;;;;297.13;36.33;;;1.00;1.00;;;;;;4977121;28;20056;-64
2023/03/02 08:16:10;;;;;;;168.93;32.97;;;1.30;1.00;;;;;;4980548;28;20046;-64
2023/03/02 08:18:37;;;;;;;320.33;38.50;;;1.30;1.00;;;;;;4976724;28;20042;-64
2023/03/02 08:21:09;;;;;;;212.15;37.17;;;1.30;1.00;;;;;;4991992;28;20077;-64
2023/03/02 08:23:35;;;;;;;185.05;35.53;;;1.10;1.00;;;;;;5008197;28;20081;-64
2023/03/02 08:26:01;;;;;;;246.80;34.80;;;1.20;1.00;;;;;;5007767;28;20138;-63
2023/03/02 08:28:26;;;;;;;121.40;25.00;;;1.20;1.00;;;;;;4978381;28;20081;-65
2023/03/02 08:30:59;;;;;;;256.10;32.70;;;1.20;1.00;;;;;;4972630;28;20522;-64
2023/03/02 08:33:27;;;;;;;211.18;34.33;;;1.40;1.00;;;;;;4991217;28;20181;-65
2023/03/02 08:36:04;;;;;;;393.13;39.67;;;1.30;1.00;;;;;;4974131;28;20440;-64
2023/03/02 08:38:30;;;;;;;319.73;37.47;;;1.50;1.00;;;;;;4978372;28;20128;-64
2023/03/02 08:40:56;;;;;;;181.90;34.33;;;1.60;1.00;;;;;;4975595;28;20571;-64
2023/03/02 08:43:24;;;;;;;140.27;31.65;;;1.60;1.00;;;;;;5007473;28;20050;-64
2023/03/02 08:45:56;;;;;;;226.93;32.50;;;1.60;1.00;;;;;;4974678;28;20050;-64
2023/03/02 08:48:23;;;;;;;97.32;28.05;;;1.80;1.00;;;;;;4977363;28;20404;-64
2023/03/02 08:51:05;;;;;;;106.72;29.95;;;1.70;1.00;;;;;;4975953;28;20131;-63
2023/03/02 08:53:33;;;;;;;175.98;30.20;;;2.00;1.00;;;;;;5008282;28;20061;-63
2023/03/02 08:55:59;;;;;;;113.00;28.55;;;2.10;1.00;;;;;;5007597;28;20038;-62
2023/03/02 08:58:25;;;;;;;229.00;32.33;;;2.00;1.00;;;;;;5008323;28;20042;-63
2023/03/02 09:00:51;;;;;;;84.78;27.20;;;2.10;1.00;;;;;;4977083;28;20038;-63
2023/03/02 09:03:17;;;;;;;79.47;24.83;;;2.00;1.00;;;;;;4977025;28;20201;-63
2023/03/02 09:05:43;;;;;;;79.85;26.75;;;2.00;1.00;;;;;;4992580;28;20038;-62
2023/03/02 09:08:09;;;;;;;78.10;27.83;;;2.10;1.00;;;;;;4990810;28;20049;-62
2023/03/02 09:10:35;;;;;;;107.88;25.45;;;2.20;1.00;;;;;;5009134;28;20251;-63
2023/03/02 09:13:01;;;;;;;181.00;30.92;;;2.00;1.00;;;;;;5008457;28;20887;-63
2023/03/02 09:15:27;;;;;;;75.90;27.27;;;2.20;1.00;;;;;;4978552;28;20045;-62
2023/03/02 09:17:54;;;;;;;50.70;22.65;;;2.10;1.00;;;;;;4976953;28;20436;-64
2023/03/02 09:20:20;;;;;;;49.20;23.50;;;2.10;1.00;;;;;;4973605;28;20065;-63
2023/03/02 09:22:49;;;;;;;60.17;20.73;;;2.30;1.00;;;;;;4976021;28;20183;-63
2023/03/02 09:25:17;;;;;;;58.25;24.65;;;2.20;1.00;;;;;;4992843;28;20414;-64
2023/03/02 09:27:44;;;;;;;61.03;25.88;;;2.20;1.00;;;;;;4995506;28;20041;-63
2023/03/02 09:30:10;;;;;;;48.83;21.83;;;2.30;1.00;;;;;;4976489;28;20050;-64
2023/03/02 09:32:36;;;;;;;54.83;25.20;;;2.40;1.00;;;;;;4977713;28;20038;-65
2023/03/02 09:35:02;;;;;;;65.75;25.75;;;2.50;1.00;;;;;;4991027;28;20104;-64
2023/03/02 09:37:28;;;;;;;53.47;25.60;;;2.50;1.00;;;;;;4975804;28;20806;-64
2023/03/02 09:39:54;;;;;;;46.42;24.33;;;2.60;1.00;;;;;;5006737;28;20119;-64
2023/03/02 09:42:46;;;;;;;45.08;23.58;;;2.60;1.00;;;;;;4975397;28;20366;-63
2023/03/02 09:45:28;;;;;;;40.17;20.45;;;2.80;99.90;;;;;;4974468;28;20042;-65
2023/03/02 09:48:00;;;;;;;37.05;21.17;;;2.80;99.90;;;;;;4990182;28;20177;-64
2023/03/02 09:50:35;;;;;;;35.05;20.95;;;2.80;99.90;;;;;;4991917;28;20050;-64
2023/03/02 09:53:23;;;;;;;40.08;21.52;;;2.80;99.90;;;;;;5005797;28;20085;-63
2023/03/02 09:56:01;;;;;;;44.05;22.55;;;2.70;99.90;;;;;;4975243;28;20069;-63
2023/03/02 09:58:57;;;;;;;40.00;22.73;;;2.80;99.90;;;;;;4971129;28;20500;-62
2023/03/02 10:02:00;;;;;;;38.15;22.40;;;2.90;99.90;;;;;;4985495;28;20050;-64
2023/03/02 10:04:37;;;;;;;31.70;18.90;;;3.10;99.90;;;;;;4976574;28;20046;-64
2023/03/02 10:07:34;;;;;;;32.85;19.65;;;3.20;99.90;;;;;;5006319;28;20768;-63
2023/03/02 10:10:32;;;;;;;34.97;20.02;;;3.30;99.90;;;;;;4991055;28;20050;-62
2023/03/02 10:13:20;;;;;;;30.65;19.77;;;3.40;99.90;;;;;;5006301;28;20339;-64
2023/03/02 10:16:00;;;;;;;29.92;20.08;;;3.60;99.90;;;;;;5005470;28;20220;-64
2023/03/02 10:18:28;;;;;;;30.85;19.13;;;3.50;99.90;;;;;;4991799;28;20042;-64
2023/03/02 10:21:36;;;;;;;26.50;16.92;;;3.50;99.90;;;;;;5007673;28;20057;-64
2023/03/02 10:24:43;;;;;;;25.27;17.33;;;3.60;99.90;;;;;;4977391;28;20086;-64
2023/03/02 10:27:24;;;;;;;24.13;17.55;;;3.70;99.90;;;;;;5012444;28;20077;-64
2023/03/02 10:30:30;;;;;;;20.10;13.77;;;3.80;99.90;;;;;;4991137;28;20245;-63
2023/03/02 10:33:01;;;;;;;23.73;16.50;;;3.90;99.90;;;;;;4979758;28;20538;-63
2023/03/02 10:35:28;;;;;;;22.20;15.65;;;3.80;99.90;;;;;;4995418;28;20129;-63
2023/03/02 10:38:15;;;;;;;24.73;17.40;;;3.70;99.90;;;;;;5009793;28;20497;-64
2023/03/02 10:40:51;;;;;;;19.67;14.15;;;3.90;99.90;;;;;;4997335;28;20566;-63
2023/03/02 10:43:45;;;;;;;20.60;15.98;;;4.00;99.90;;;;;;4979199;28;20343;-63
2023/03/02 10:46:12;;;;;;;28.63;18.90;;;4.20;44.10;;;;;;4975646;28;20560;-65
2023/03/02 10:48:55;;;;;;;29.92;20.30;;;4.30;96.40;;;;;;4980352;28;20034;-65
2023/03/02 10:51:34;;;;;;;27.20;19.15;;;4.30;23.50;;;;;;5011603;28;20067;-64
2023/03/02 10:54:10;;;;;;;27.20;18.42;;;4.30;1.00;;;;;;4994122;28;20506;-63
2023/03/02 10:56:37;;;;;;;23.65;16.50;;;4.30;1.00;;;;;;4976067;28;20054;-63
2023/03/02 10:59:44;;;;;;;25.38;18.33;;;4.40;17.00;;;;;;5009732;28;20393;-63
2023/03/02 11:02:17;;;;;;;27.30;18.80;;;4.40;1.00;;;;;;4961384;28;20045;-63
2023/03/02 11:04:43;;;;;;;25.38;17.95;;;4.40;1.00;;;;;;5009725;28;20532;-64
2023/03/02 11:07:20;;;;;;;22.60;17.00;;;4.60;1.00;;;;;;4976696;28;20050;-64
2023/03/02 11:10:00;;;;;;;22.55;16.23;;;4.70;1.00;;;;;;4994016;28;20154;-63
2023/03/02 11:12:27;;;;;;;21.02;15.20;;;4.60;1.00;;;;;;5009092;28;20129;-63
2023/03/02 11:15:15;;;;;;;22.27;16.05;;;4.70;1.00;;;;;;4977284;28;20296;-63
2023/03/02 11:17:42;;;;;;;20.58;16.15;;;4.80;1.00;;;;;;4978659;28;20065;-62
2023/03/02 11:20:20;;;;;;;21.27;16.50;;;4.90;1.00;;;;;;4978332;28;20208;-62
2023/03/02 11:23:19;;;;;;;19.95;15.13;;;5.20;1.00;;;;;;5010428;28;20235;-65
2023/03/02 11:25:59;;;;;;;17.35;13.75;;;5.40;1.00;;;;;;4977692;28;20113;-62
2023/03/02 11:28:42;;;;;;;18.63;13.82;;;5.60;1.00;;;;;;4992128;28;20322;-64
2023/03/02 11:31:20;;;;;;;19.30;15.07;;;5.80;1.00;;;;;;4991725;28;20166;-63
2023/03/02 11:34:06;;;;;;;18.23;14.65;;;6.20;99.90;;;;;;4974760;28;20076;-63
2023/03/02 11:37:04;;;;;;;17.13;13.80;;;6.80;99.90;;;;;;4991716;28;20053;-63
2023/03/02 11:40:16;;;;;;;19.85;15.15;;;7.50;99.90;;;;;;4976994;28;20520;-64
2023/03/02 11:42:44;;;;;;;16.90;14.70;;;8.30;99.90;;;;;;4988548;28;20050;-61
2023/03/02 11:45:12;;;;;;;16.25;14.38;;;8.90;99.90;;;;;;5010006;28;20053;-62
2023/03/02 11:47:45;;;;;;;16.73;14.55;;;9.30;99.90;;;;;;5010440;28;20550;-63
2023/03/02 11:50:14;;;;;;;16.60;14.43;;;9.90;99.90;;;;;;4980768;28;20041;-64
2023/03/02 11:52:52;;;;;;;15.23;13.55;;;9.80;99.90;;;;;;5008763;28;20042;-64
2023/03/02 11:55:23;;;;;;;18.10;15.23;;;9.10;99.90;;;;;;4980660;28;20052;-64
2023/03/02 11:58:01;;;;;;;17.33;15.10;;;8.80;99.90;;;;;;4979497;28;20044;-63
2023/03/02 12:00:31;;;;;;;17.90;15.52;;;8.60;99.90;;;;;;4976107;28;20097;-64
2023/03/02 12:03:04;;;;;;;16.88;15.07;;;8.40;99.90;;;;;;4977808;28;20066;-64
2023/03/02 12:05:34;;;;;;;15.53;13.90;;;8.30;99.90;;;;;;4977400;28;20074;-64
2023/03/02 12:08:06;;;;;;;15.07;13.48;;;8.20;99.90;;;;;;5008501;28;20383;-64
2023/03/02 12:10:42;;;;;;;14.60;13.02;;;8.40;99.90;;;;;;4988259;28;20236;-64
2023/03/02 12:13:21;;;;;;;15.30;13.70;;;9.20;99.90;;;;;;5007756;28;20105;-65
2023/03/02 12:15:51;;;;;;;15.45;13.85;;;9.60;99.90;;;;;;5008440;28;20199;-64
2023/03/02 12:18:19;;;;;;;15.27;13.63;;;9.50;99.90;;;;;;5006909;28;20048;-64
2023/03/02 12:21:01;;;;;;;14.93;13.52;;;9.50;99.90;;;;;;5009534;28;20221;-64
2023/03/02 12:23:27;;;;;;;14.98;13.48;;;9.10;99.90;;;;;;4992168;28;20046;-65
2023/03/02 12:26:07;;;;;;;15.88;14.27;;;8.90;99.90;;;;;;4981906;28;20069;-64
2023/03/02 12:28:37;;;;;;;16.05;13.95;;;9.20;99.90;;;;;;4976001;28;20531;-64
2023/03/02 12:31:10;;;;;;;13.68;12.27;;;10.10;99.90;;;;;;4975544;28;20050;-65
2023/03/02 12:33:48;;;;;;;14.75;13.25;;;10.80;99.90;;;;;;4977056;28;20127;-65
2023/03/02 12:36:39;;;;;;;11.70;10.38;;;10.80;99.90;;;;;;4975556;28;20038;-65
2023/03/02 12:39:34;;;;;;;13.43;12.10;;;11.10;99.90;;;;;;4975790;28;20042;-64
2023/03/02 12:42:28;;;;;;;13.50;12.18;;;11.40;99.90;;;;;;4972067;28;20387;-63
2023/03/02 12:45:02;;;;;;;;;;;11.90;99.90;;;;;;4963643;28;20559;-65
2023/03/02 12:47:29;;;;;;;13.30;12.00;;;11.50;99.90;;;;;;4994496;28;19975;-65
2023/03/02 12:49:59;;;;;;;13.50;12.10;;;11.20;99.90;;;;;;5006180;28;20161;-64
2023/03/02 12:52:33;;;;;;;13.80;12.40;;;11.10;99.90;;;;;;4975496;28;20046;-65
2023/03/02 12:55:08;;;;;;;13.63;12.23;;;10.90;99.90;;;;;;5008527;28;20038;-65